OOCL Atlanta — VRAR6 — position and weather

sailwx.info

Track history (hours):
 
Tides and Currents Weather Stations Pressure Air Temp Water Temp Dewpoint Dewpoint Depression Visibility Wind Speed Wind Dir Waves Ship Positions

OOCL Atlanta

Last reported at 2017-Mar-18 00:21 UTC. Time now 2017-Mar-29 05:16 UTC.
Position N 31°24' E 032°18'.
Warning: this ship's position is 11 days out of date.

Length 323 m; beam 42.8 m; draft 14.5 m.

Type: Cargo ship. MMSI: 477920300.

Date/timePositionNaut miles runAvg speedWind from/ knotsBaromVisibWave heightAir tempDewpointWater temp
2017-Mar-18 00:21N 31°24' E 032°18'0 0.0
2017-Mar-17 22:06N 31°24' E 032°18'  
2017-Mar-15 06:06N 36°19' E 015°00'813.9
2017-Mar-15 05:32N 36°21' E 014°51'1414.3
2017-Mar-15 04:33N 36°24' E 014°34'1413.8
2017-Mar-15 03:33N 36°27' E 014°17'1414.2
2017-Mar-15 02:33N 36°30' E 013°60'1414.1
2017-Mar-15 01:33N 36°34' E 013°43'  
2017-Mar-12 09:32N 36°03' W 004°55'1616.1
2017-Mar-12 08:33N 36°00' W 005°14'1818.3
2017-Mar-12 07:33N 35°56' W 005°36'1616.1
2017-Mar-12 06:33N 35°54' W 005°56'1515.5
2017-Mar-12 05:33N 35°54' W 006°15'8814.1
2017-Mar-11 23:20N 35°49' W 008°03'10413.3
2017-Mar-11 15:28N 35°42' W 010°12'1313.4
2017-Mar-11 14:29N 35°42' W 010°28'16713.5
2017-Mar-11 02:06N 35°32' W 013°53'713.6
2017-Mar-11 01:33N 35°32' W 014°02'1313.3
2017-Mar-11 00:33N 35°31' W 014°18'49013.9
2017-Mar-09 13:21N 35°03' W 024°17'36614.4
2017-Mar-08 12:00N 34°42' W 031°42'   220 / 151010.610.8 18.516.217.8
Track history (hours):
 
Tides and Currents Weather Stations Pressure Air Temp Water Temp Dewpoint Dewpoint Depression Visibility Wind Speed Wind Dir Waves Ship Positions

OOCL Atlanta

Last reported at 2017-Mar-18 00:21 UTC. Time now 2017-Mar-29 05:16 UTC.
Position N 31°24' E 032°18'.
Warning: this ship's position is 11 days out of date.

Length 323 m; beam 42.8 m; draft 14.5 m.

Type: Cargo ship. MMSI: 477920300.

Date/timePositionNaut miles runAvg speedWind from/ knotsBaromVisibWave heightAir tempDewpointWater temp
2017-Mar-18 00:21N 31°24' E 032°18'0 0.0
2017-Mar-17 22:06N 31°24' E 032°18'  
2017-Mar-15 06:06N 36°19' E 015°00'813.9
2017-Mar-15 05:32N 36°21' E 014°51'1414.3
2017-Mar-15 04:33N 36°24' E 014°34'1413.8
2017-Mar-15 03:33N 36°27' E 014°17'1414.2
2017-Mar-15 02:33N 36°30' E 013°60'1414.1
2017-Mar-15 01:33N 36°34' E 013°43'  
2017-Mar-12 09:32N 36°03' W 004°55'1616.1
2017-Mar-12 08:33N 36°00' W 005°14'1818.3
2017-Mar-12 07:33N 35°56' W 005°36'1616.1
2017-Mar-12 06:33N 35°54' W 005°56'1515.5
2017-Mar-12 05:33N 35°54' W 006°15'8814.1
2017-Mar-11 23:20N 35°49' W 008°03'10413.3
2017-Mar-11 15:28N 35°42' W 010°12'1313.4
2017-Mar-11 14:29N 35°42' W 010°28'16713.5
2017-Mar-11 02:06N 35°32' W 013°53'713.6
2017-Mar-11 01:33N 35°32' W 014°02'1313.3
2017-Mar-11 00:33N 35°31' W 014°18'49013.9
2017-Mar-09 13:21N 35°03' W 024°17'36614.4
2017-Mar-08 12:00N 34°42' W 031°42'   220 / 151010.610.8 18.516.217.8

Dump ship's entire track history